Time;durP1;ratioP1;P1;durP2;ratioP2;P2;SDS_P1;SDS_P2;PMS_P1;PMS_P2;Temp;Humidity;BMP_temperature;BMP_pressure;BME280_temperature;BME280_humidity;BME280_pressure;Samples;Min_cycle;Max_cycle;Signal;HPM_P1;HPM_P2
2024/01/14 00:00:23;;;;;;;27.45;13.45;;;;;;;;;;5105053;27;20056;-60
2024/01/14 00:02:50;;;;;;;25.67;13.68;;;;;;;;;;5105169;28;20430;-60
2024/01/14 00:05:16;;;;;;;23.15;13.82;;;;;;;;;;5105342;28;20056;-60
2024/01/14 00:07:43;;;;;;;29.05;15.55;;;;;;;;;;5104634;27;20152;-60
2024/01/14 00:10:10;;;;;;;29.48;14.68;;;;;;;;;;5105293;28;20109;-60
2024/01/14 00:12:36;;;;;;;28.73;14.98;;;;;;;;;;5103811;27;20129;-60
2024/01/14 00:15:03;;;;;;;25.65;14.65;;;;;;;;;;5104906;28;20048;-61
2024/01/14 00:17:29;;;;;;;34.45;15.65;;;;;;;;;;5104755;27;20056;-61
2024/01/14 00:19:59;;;;;;;29.63;15.52;;;;;;;;;;5105174;28;20052;-61
2024/01/14 00:22:26;;;;;;;31.67;15.65;;;;;;;;;;5104406;28;20137;-60
2024/01/14 00:24:53;;;;;;;31.52;15.77;;;;;;;;;;5098773;27;20052;-61
2024/01/14 00:27:20;;;;;;;29.70;15.85;;;;;;;;;;5104496;27;20114;-61
2024/01/14 00:29:46;;;;;;;31.80;16.08;;;;;;;;;;5102786;27;20554;-61
2024/01/14 00:32:13;;;;;;;32.65;16.85;;;;;;;;;;5104815;28;20089;-60
2024/01/14 00:34:42;;;;;;;32.60;16.52;;;;;;;;;;5104663;28;20055;-60
2024/01/14 00:37:10;;;;;;;33.08;17.65;;;;;;;;;;5104187;27;20059;-59
2024/01/14 00:39:37;;;;;;;30.00;15.57;;;;;;;;;;5104421;27;20056;-60
2024/01/14 00:42:05;;;;;;;24.52;13.13;;;;;;;;;;5104346;27;20571;-60
2024/01/14 00:44:31;;;;;;;23.15;13.50;;;;;;;;;;5104484;27;20067;-59
2024/01/14 00:46:58;;;;;;;29.20;15.13;;;;;;;;;;5103939;27;20052;-61
2024/01/14 00:49:24;;;;;;;28.38;15.93;;;;;;;;;;5104624;27;20109;-61
2024/01/14 00:51:50;;;;;;;33.00;14.48;;;;;;;;;;5100875;27;20084;-60
2024/01/14 00:54:17;;;;;;;27.50;15.57;;;;;;;;;;5094029;28;20055;-59
2024/01/14 00:56:43;;;;;;;32.78;17.08;;;;;;;;;;5102356;27;20056;-60
2024/01/14 00:59:11;;;;;;;37.75;17.55;;;;;;;;;;5086634;28;20654;-58
2024/01/14 01:01:38;;;;;;;33.35;16.40;;;;;;;;;;5104263;28;20052;-61
2024/01/14 01:04:04;;;;;;;35.95;17.38;;;;;;;;;;5103005;27;20489;-60
2024/01/14 01:06:31;;;;;;;32.38;17.90;;;;;;;;;;5123214;27;20143;-60
2024/01/14 01:08:59;;;;;;;33.35;16.48;;;;;;;;;;5125189;27;20055;-60
2024/01/14 01:11:25;;;;;;;31.45;16.98;;;;;;;;;;5124732;27;20509;-60
2024/01/14 01:13:52;;;;;;;31.55;15.98;;;;;;;;;;5123364;27;20104;-60
2024/01/14 01:16:18;;;;;;;29.13;15.32;;;;;;;;;;5103153;27;20048;-58
2024/01/14 01:18:44;;;;;;;35.30;17.10;;;;;;;;;;5103857;27;20059;-60
2024/01/14 01:21:16;;;;;;;28.98;16.48;;;;;;;;;;5102896;28;20059;-60
2024/01/14 01:23:42;;;;;;;35.30;17.00;;;;;;;;;;5102648;27;20060;-60
2024/01/14 01:26:09;;;;;;;37.08;18.48;;;;;;;;;;5104456;27;20052;-60
2024/01/14 01:28:35;;;;;;;37.10;19.00;;;;;;;;;;5104447;28;20123;-59
2024/01/14 01:31:02;;;;;;;36.25;19.10;;;;;;;;;;5103873;28;20625;-60
2024/01/14 01:33:28;;;;;;;38.80;18.42;;;;;;;;;;5104240;27;20052;-60
2024/01/14 01:35:55;;;;;;;37.33;18.15;;;;;;;;;;5104320;27;20054;-60
2024/01/14 01:38:21;;;;;;;39.13;19.10;;;;;;;;;;5104065;27;20051;-59
2024/01/14 01:40:48;;;;;;;39.85;20.63;;;;;;;;;;5102502;28;20072;-60
2024/01/14 01:43:14;;;;;;;41.22;20.27;;;;;;;;;;5103698;27;20051;-60
2024/01/14 01:45:40;;;;;;;45.40;21.48;;;;;;;;;;5104038;28;20051;-61
2024/01/14 01:48:07;;;;;;;47.70;21.90;;;;;;;;;;5103630;27;20052;-61
2024/01/14 01:50:34;;;;;;;53.30;22.25;;;;;;;;;;5103780;27;20080;-60
2024/01/14 01:53:01;;;;;;;51.92;21.25;;;;;;;;;;5104099;27;20131;-61
2024/01/14 01:55:28;;;;;;;52.33;21.27;;;;;;;;;;5103299;27;20052;-60
2024/01/14 01:57:55;;;;;;;43.72;20.20;;;;;;;;;;5104043;28;20056;-60
2024/01/14 02:00:21;;;;;;;52.03;21.15;;;;;;;;;;5104035;27;20450;-60
2024/01/14 02:02:48;;;;;;;49.00;21.35;;;;;;;;;;5104019;27;20546;-59
2024/01/14 02:05:16;;;;;;;47.83;20.17;;;;;;;;;;5104035;27;20095;-60
2024/01/14 02:07:44;;;;;;;44.95;21.02;;;;;;;;;;5103162;27;20139;-58
2024/01/14 02:10:10;;;;;;;44.80;20.17;;;;;;;;;;5103671;27;20536;-60
2024/01/14 02:12:37;;;;;;;44.03;20.80;;;;;;;;;;5103635;28;20062;-60
2024/01/14 02:15:03;;;;;;;45.95;21.15;;;;;;;;;;5103388;27;20067;-61
2024/01/14 02:17:30;;;;;;;50.08;22.38;;;;;;;;;;5103828;27;20518;-60
2024/01/14 02:19:56;;;;;;;53.75;22.80;;;;;;;;;;5103584;28;20059;-60
2024/01/14 02:22:25;;;;;;;53.65;22.02;;;;;;;;;;5103078;27;20059;-58
2024/01/14 02:24:52;;;;;;;44.60;20.73;;;;;;;;;;5102992;27;20131;-60
2024/01/14 02:27:19;;;;;;;44.92;20.90;;;;;;;;;;5103687;27;20534;-61
2024/01/14 02:29:46;;;;;;;47.13;20.00;;;;;;;;;;5103791;27;20055;-60
2024/01/14 02:32:13;;;;;;;47.28;20.75;;;;;;;;;;5103396;28;20060;-58
2024/01/14 02:34:39;;;;;;;50.28;21.48;;;;;;;;;;5104142;27;20477;-60
2024/01/14 02:37:06;;;;;;;47.20;20.30;;;;;;;;;;5106792;27;20056;-60
2024/01/14 02:39:32;;;;;;;48.80;20.85;;;;;;;;;;5107150;27;20101;-60
2024/01/14 02:41:59;;;;;;;52.80;23.35;;;;;;;;;;5106730;27;20399;-60
2024/01/14 02:44:26;;;;;;;37.20;17.17;;;;;;;;;;5107380;27;20052;-60
2024/01/14 02:46:52;;;;;;;38.80;17.25;;;;;;;;;;5106913;27;20479;-61
2024/01/14 02:49:19;;;;;;;48.45;20.95;;;;;;;;;;5107041;27;20068;-60
2024/01/14 02:51:45;;;;;;;47.55;21.33;;;;;;;;;;5106691;28;20056;-59
2024/01/14 02:54:12;;;;;;;45.80;20.90;;;;;;;;;;5106784;27;20129;-60
2024/01/14 02:56:39;;;;;;;47.10;20.92;;;;;;;;;;5107228;27;20052;-60
2024/01/14 02:59:05;;;;;;;49.65;22.63;;;;;;;;;;5106908;28;20052;-60
2024/01/14 03:01:31;;;;;;;47.92;21.05;;;;;;;;;;5106124;27;20051;-60
2024/01/14 03:03:58;;;;;;;48.00;21.40;;;;;;;;;;5106602;27;20064;-59
2024/01/14 03:06:24;;;;;;;50.35;23.40;;;;;;;;;;5085867;28;20544;-60
2024/01/14 03:08:51;;;;;;;51.30;20.92;;;;;;;;;;5086063;28;20513;-60
2024/01/14 03:11:18;;;;;;;51.97;23.15;;;;;;;;;;5093158;28;20082;-61
2024/01/14 03:13:44;;;;;;;53.10;22.00;;;;;;;;;;5106170;28;20518;-60
2024/01/14 03:16:11;;;;;;;56.17;23.20;;;;;;;;;;5107550;28;20510;-60
2024/01/14 03:18:37;;;;;;;51.22;22.65;;;;;;;;;;5105910;27;20135;-60
2024/01/14 03:21:04;;;;;;;46.60;20.48;;;;;;;;;;5106390;27;20587;-60
2024/01/14 03:23:30;;;;;;;53.35;22.02;;;;;;;;;;5106350;27;20084;-60
2024/01/14 03:25:56;;;;;;;42.45;21.15;;;;;;;;;;5105449;27;20059;-60
2024/01/14 03:28:23;;;;;;;54.35;22.08;;;;;;;;;;5105527;27;20087;-60
2024/01/14 03:30:50;;;;;;;48.38;22.17;;;;;;;;;;5103781;27;20056;-61
2024/01/14 03:33:17;;;;;;;45.15;20.05;;;;;;;;;;5105574;27;20087;-60
2024/01/14 03:35:43;;;;;;;46.70;21.77;;;;;;;;;;5105720;27;20572;-60
2024/01/14 03:38:09;;;;;;;48.92;22.48;;;;;;;;;;5106726;27;20105;-60
2024/01/14 03:40:36;;;;;;;49.33;21.98;;;;;;;;;;5105555;27;20121;-60
2024/01/14 03:43:02;;;;;;;54.03;22.25;;;;;;;;;;5105995;27;20059;-61
2024/01/14 03:45:29;;;;;;;48.78;23.05;;;;;;;;;;5105984;27;20058;-61
2024/01/14 03:47:55;;;;;;;53.80;23.50;;;;;;;;;;5105020;27;20048;-59
2024/01/14 03:50:22;;;;;;;54.75;22.35;;;;;;;;;;5104522;27;20056;-59
2024/01/14 03:52:48;;;;;;;63.80;23.50;;;;;;;;;;5105976;28;20130;-60
2024/01/14 03:55:15;;;;;;;52.17;22.38;;;;;;;;;;5105875;28;20556;-58
2024/01/14 03:57:41;;;;;;;57.72;23.60;;;;;;;;;;5105730;28;20048;-61
2024/01/14 04:00:08;;;;;;;47.85;21.90;;;;;;;;;;5105742;27;20051;-60
2024/01/14 04:02:35;;;;;;;45.67;20.65;;;;;;;;;;5105957;27;20056;-59
2024/01/14 04:05:01;;;;;;;48.97;21.63;;;;;;;;;;5105285;28;20054;-59
2024/01/14 04:07:27;;;;;;;49.42;22.17;;;;;;;;;;5104372;28;20106;-60
2024/01/14 04:09:54;;;;;;;45.03;22.02;;;;;;;;;;5105436;27;20595;-60
2024/01/14 04:12:21;;;;;;;44.63;18.88;;;;;;;;;;5105887;28;20048;-59
2024/01/14 04:14:47;;;;;;;42.42;18.70;;;;;;;;;;5104925;27;20486;-60
2024/01/14 04:17:13;;;;;;;39.05;17.02;;;;;;;;;;5105354;27;20120;-60
2024/01/14 04:19:40;;;;;;;40.55;17.85;;;;;;;;;;5104885;27;20171;-60
2024/01/14 04:22:06;;;;;;;35.35;16.27;;;;;;;;;;5105724;27;20411;-59
2024/01/14 04:24:32;;;;;;;31.70;15.60;;;;;;;;;;5105312;28;20079;-60
2024/01/14 04:26:59;;;;;;;35.17;16.02;;;;;;;;;;5105283;27;20579;-59
2024/01/14 04:29:25;;;;;;;43.13;18.85;;;;;;;;;;5104725;27;20109;-59
2024/01/14 04:31:52;;;;;;;40.25;19.27;;;;;;;;;;5105007;27;20501;-60
2024/01/14 04:34:18;;;;;;;34.40;18.13;;;;;;;;;;5105108;27;20091;-59
2024/01/14 04:36:45;;;;;;;44.55;20.85;;;;;;;;;;5105159;27;20048;-60
2024/01/14 04:39:11;;;;;;;44.08;22.23;;;;;;;;;;5105133;27;20524;-60
2024/01/14 04:41:38;;;;;;;50.78;23.92;;;;;;;;;;5104461;27;20143;-59
2024/01/14 04:44:05;;;;;;;47.28;23.75;;;;;;;;;;5105730;27;20146;-60
2024/01/14 04:46:31;;;;;;;50.75;24.30;;;;;;;;;;5105235;27;20056;-58
2024/01/14 04:48:58;;;;;;;52.25;25.48;;;;;;;;;;5104072;27;20222;-60
2024/01/14 04:51:25;;;;;;;53.22;24.35;;;;;;;;;;5104084;27;20056;-60
2024/01/14 04:53:51;;;;;;;55.70;24.85;;;;;;;;;;5103572;28;20051;-59
2024/01/14 04:56:17;;;;;;;58.00;26.88;;;;;;;;;;5105041;27;20054;-60
2024/01/14 04:58:44;;;;;;;56.85;26.30;;;;;;;;;;5104357;27;20048;-61
2024/01/14 05:01:10;;;;;;;53.22;26.38;;;;;;;;;;5104596;28;20510;-59
2024/01/14 05:03:37;;;;;;;54.03;25.88;;;;;;;;;;5103756;27;20586;-59
2024/01/14 05:06:04;;;;;;;52.35;24.98;;;;;;;;;;5105180;27;20147;-61
2024/01/14 05:08:31;;;;;;;58.47;26.83;;;;;;;;;;5104353;27;20150;-58
2024/01/14 05:10:58;;;;;;;56.75;25.85;;;;;;;;;;5103714;27;20052;-60
2024/01/14 05:13:24;;;;;;;64.53;28.08;;;;;;;;;;5104647;28;20137;-59
2024/01/14 05:15:51;;;;;;;52.60;25.80;;;;;;;;;;5104622;28;20051;-60
2024/01/14 05:18:17;;;;;;;55.47;26.90;;;;;;;;;;5104391;28;20056;-60
2024/01/14 05:20:44;;;;;;;59.25;28.45;;;;;;;;;;5104054;28;20048;-60
2024/01/14 05:23:10;;;;;;;59.25;26.83;;;;;;;;;;5103058;27;20129;-60
2024/01/14 05:25:37;;;;;;;60.58;26.50;;;;;;;;;;5104375;27;20087;-60
2024/01/14 05:28:03;;;;;;;57.72;27.58;;;;;;;;;;5104390;27;20062;-59
2024/01/14 05:30:30;;;;;;;59.78;28.52;;;;;;;;;;5103741;27;20137;-60
2024/01/14 05:32:56;;;;;;;57.53;26.70;;;;;;;;;;5103979;27;20048;-59
2024/01/14 05:35:23;;;;;;;54.17;26.58;;;;;;;;;;5104213;27;20063;-60
2024/01/14 05:37:49;;;;;;;62.60;27.02;;;;;;;;;;5104182;27;20640;-60
2024/01/14 05:40:16;;;;;;;56.30;25.88;;;;;;;;;;5103908;27;20063;-60
2024/01/14 05:42:43;;;;;;;53.67;26.77;;;;;;;;;;5104272;27;20514;-60
2024/01/14 05:45:10;;;;;;;58.40;26.85;;;;;;;;;;5103024;27;20109;-61
2024/01/14 05:47:37;;;;;;;60.78;27.77;;;;;;;;;;5103336;28;20056;-60
2024/01/14 05:50:03;;;;;;;57.25;27.92;;;;;;;;;;5103422;28;20131;-59
2024/01/14 05:52:30;;;;;;;53.30;26.77;;;;;;;;;;5103897;27;20052;-60
2024/01/14 05:54:56;;;;;;;55.22;25.67;;;;;;;;;;5103750;27;20059;-60
2024/01/14 05:57:23;;;;;;;58.25;29.35;;;;;;;;;;5104341;28;20048;-60
2024/01/14 05:59:50;;;;;;;56.15;27.20;;;;;;;;;;5103871;27;20051;-59
2024/01/14 06:02:17;;;;;;;58.60;27.98;;;;;;;;;;5103695;27;20052;-60
2024/01/14 06:04:43;;;;;;;60.60;29.23;;;;;;;;;;5103377;27;20506;-60
2024/01/14 06:07:10;;;;;;;61.28;27.52;;;;;;;;;;5104238;28;20050;-60
2024/01/14 06:09:37;;;;;;;63.08;30.40;;;;;;;;;;5103280;28;20055;-60
2024/01/14 06:12:03;;;;;;;67.65;29.73;;;;;;;;;;5103882;27;20056;-60
2024/01/14 06:14:30;;;;;;;64.35;29.48;;;;;;;;;;5103200;28;20056;-59
2024/01/14 06:16:56;;;;;;;67.07;30.00;;;;;;;;;;5102884;27;20048;-61
2024/01/14 06:19:23;;;;;;;61.55;30.10;;;;;;;;;;5103311;27;20537;-60
2024/01/14 06:21:49;;;;;;;60.92;30.35;;;;;;;;;;5103524;27;20048;-59
2024/01/14 06:24:16;;;;;;;64.40;30.60;;;;;;;;;;5103722;28;20052;-60
2024/01/14 06:26:43;;;;;;;63.28;28.38;;;;;;;;;;5103874;28;20056;-59
2024/01/14 06:29:09;;;;;;;59.38;28.23;;;;;;;;;;5103429;27;20056;-58
2024/01/14 06:31:35;;;;;;;62.00;28.77;;;;;;;;;;5103315;27;20056;-59
2024/01/14 06:34:02;;;;;;;59.88;28.80;;;;;;;;;;5103403;27;20102;-59
2024/01/14 06:36:29;;;;;;;59.53;28.05;;;;;;;;;;5103884;27;20053;-60
2024/01/14 06:38:55;;;;;;;57.47;26.92;;;;;;;;;;5101193;28;20117;-59
2024/01/14 06:41:25;;;;;;;59.20;28.67;;;;;;;;;;5101794;27;20508;-60
2024/01/14 06:43:51;;;;;;;55.00;26.75;;;;;;;;;;5102841;27;20715;-60
2024/01/14 06:46:18;;;;;;;56.03;27.52;;;;;;;;;;5103378;27;20106;-60
2024/01/14 06:48:44;;;;;;;60.28;28.10;;;;;;;;;;5103381;27;20056;-61
2024/01/14 06:51:11;;;;;;;57.88;27.42;;;;;;;;;;5102876;27;20056;-60
2024/01/14 06:53:37;;;;;;;57.38;26.70;;;;;;;;;;5103195;27;20058;-60
2024/01/14 06:56:03;;;;;;;60.80;29.58;;;;;;;;;;5103335;27;20146;-60
2024/01/14 06:58:30;;;;;;;52.45;26.00;;;;;;;;;;5102483;27;20399;-60
2024/01/14 07:00:56;;;;;;;65.65;29.45;;;;;;;;;;5102370;27;20133;-59
2024/01/14 07:03:23;;;;;;;58.33;27.88;;;;;;;;;;5103352;28;20048;-59
2024/01/14 07:05:50;;;;;;;62.10;27.67;;;;;;;;;;5102903;28;20139;-60
2024/01/14 07:08:17;;;;;;;65.10;29.23;;;;;;;;;;5103175;28;20074;-60
2024/01/14 07:10:43;;;;;;;64.05;27.98;;;;;;;;;;5102357;27;20052;-58
2024/01/14 07:13:09;;;;;;;70.60;30.15;;;;;;;;;;5103395;27;20114;-58
2024/01/14 07:15:36;;;;;;;69.40;29.45;;;;;;;;;;5102925;27;20052;-59
2024/01/14 07:18:05;;;;;;;70.43;31.77;;;;;;;;;;5102388;27;20548;-59
2024/01/14 07:20:31;;;;;;;62.15;29.33;;;;;;;;;;5102379;27;20438;-59
2024/01/14 07:22:58;;;;;;;63.58;29.50;;;;;;;;;;5105160;27;20151;-59
2024/01/14 07:25:44;;;;;;;64.50;30.10;;;;;;;;;;5106245;28;20522;-57
2024/01/14 07:28:11;;;;;;;72.30;31.27;;;;;;;;;;5106039;28;20079;-59
2024/01/14 07:30:37;;;;;;;68.25;30.10;;;;;;;;;;5104995;27;20048;-59
2024/01/14 07:33:04;;;;;;;71.25;30.70;;;;;;;;;;5106240;28;20117;-59
2024/01/14 07:35:30;;;;;;;60.80;27.77;;;;;;;;;;5106657;27;20063;-59
2024/01/14 07:37:56;;;;;;;73.57;30.92;;;;;;;;;;5104803;28;20048;-59
2024/01/14 07:40:23;;;;;;;73.75;30.00;;;;;;;;;;5105534;28;20052;-59
2024/01/14 07:42:49;;;;;;;74.38;31.42;;;;;;;;;;5105862;28;20539;-58
2024/01/14 07:45:15;;;;;;;73.35;30.15;;;;;;;;;;5105247;27;20732;-59
2024/01/14 07:47:42;;;;;;;73.20;30.48;;;;;;;;;;5105110;27;20052;-60
2024/01/14 07:50:08;;;;;;;77.65;31.73;;;;;;;;;;5105258;28;20048;-61
2024/01/14 07:52:35;;;;;;;72.78;29.88;;;;;;;;;;5105665;27;20063;-62
2024/01/14 07:55:01;;;;;;;65.95;30.02;;;;;;;;;;5105228;27;20144;-60
2024/01/14 07:57:27;;;;;;;68.60;28.67;;;;;;;;;;5106176;28;20040;-58
2024/01/14 07:59:54;;;;;;;64.78;27.98;;;;;;;;;;5104471;27;20051;-60
2024/01/14 08:02:20;;;;;;;65.25;27.70;;;;;;;;;;5105462;27;20045;-57
2024/01/14 08:04:47;;;;;;;67.90;29.90;;;;;;;;;;5105402;27;20122;-62
2024/01/14 08:07:14;;;;;;;64.55;29.00;;;;;;;;;;5085151;28;20147;-56
2024/01/14 08:09:42;;;;;;;64.03;27.38;;;;;;;;;;5092341;28;20510;-60
2024/01/14 08:12:08;;;;;;;66.35;30.90;;;;;;;;;;5103916;28;20151;-58
2024/01/14 08:14:35;;;;;;;72.30;30.35;;;;;;;;;;5104615;28;20143;-61
2024/01/14 08:17:01;;;;;;;70.85;29.95;;;;;;;;;;5104931;28;20453;-61
2024/01/14 08:19:27;;;;;;;71.00;30.17;;;;;;;;;;5104645;28;20052;-59
2024/01/14 08:21:54;;;;;;;73.10;30.98;;;;;;;;;;5104944;28;20054;-61
2024/01/14 08:24:21;;;;;;;67.50;30.05;;;;;;;;;;5104364;28;20052;-59
2024/01/14 08:26:47;;;;;;;70.15;28.65;;;;;;;;;;5103920;27;20052;-61
2024/01/14 08:29:14;;;;;;;64.68;26.98;;;;;;;;;;5104249;28;20540;-61
2024/01/14 08:31:51;;;;;;;56.97;27.55;;;;;;;;;;5104051;28;20052;-61
2024/01/14 08:34:18;;;;;;;69.25;27.58;;;;;;;;;;5104168;28;20129;-60
2024/01/14 08:36:45;;;;;;;66.32;28.13;;;;;;;;;;5104259;27;20920;-59
2024/01/14 08:39:11;;;;;;;73.38;28.17;;;;;;;;;;5104065;27;20136;-60
2024/01/14 08:41:38;;;;;;;57.75;28.15;;;;;;;;;;5104552;27;20421;-61
2024/01/14 08:44:06;;;;;;;60.25;27.67;;;;;;;;;;5103403;28;20060;-60
2024/01/14 08:46:35;;;;;;;61.83;26.08;;;;;;;;;;5099520;28;20062;-61
2024/01/14 08:49:02;;;;;;;54.75;26.20;;;;;;;;;;5103751;28;20999;-61
2024/01/14 08:51:29;;;;;;;64.68;28.05;;;;;;;;;;5103736;27;20091;-61
2024/01/14 08:54:00;;;;;;;58.90;27.23;;;;;;;;;;5104028;28;20048;-61
2024/01/14 08:56:30;;;;;;;51.90;25.83;;;;;;;;;;5104159;28;20082;-60
2024/01/14 08:58:57;;;;;;;59.03;27.20;;;;;;;;;;5103421;27;20079;-61
2024/01/14 09:01:24;;;;;;;58.63;27.08;;;;;;;;;;5104482;27;20059;-61
2024/01/14 09:03:51;;;;;;;59.70;27.08;;;;;;;;;;5101249;27;20041;-61
2024/01/14 09:06:17;;;;;;;61.35;25.70;;;;;;;;;;5103297;28;20051;-62
2024/01/14 09:08:44;;;;;;;62.20;27.42;;;;;;;;;;5103221;28;20127;-61
2024/01/14 09:11:11;;;;;;;58.05;25.70;;;;;;;;;;5104074;27;20110;-60
2024/01/14 09:13:37;;;;;;;60.25;26.40;;;;;;;;;;5103630;27;20056;-61
2024/01/14 09:16:05;;;;;;;50.90;25.35;;;;;;;;;;5103925;27;20048;-60
2024/01/14 09:18:32;;;;;;;64.25;27.15;;;;;;;;;;5102831;27;20051;-61
2024/01/14 09:20:58;;;;;;;59.25;25.23;;;;;;;;;;5103802;28;20052;-61
2024/01/14 09:23:25;;;;;;;68.20;27.65;;;;;;;;;;5103615;28;20052;-59
2024/01/14 09:25:51;;;;;;;55.50;26.48;;;;;;;;;;5103485;28;20514;-61
2024/01/14 09:28:18;;;;;;;58.90;25.50;;;;;;;;;;5103628;27;20576;-60
2024/01/14 09:30:45;;;;;;;60.45;26.00;;;;;;;;;;5103681;27;20054;-62
2024/01/14 09:33:11;;;;;;;59.90;26.77;;;;;;;;;;5103734;28;20060;-60
2024/01/14 09:35:38;;;;;;;61.78;27.35;;;;;;;;;;5103416;27;20474;-60
2024/01/14 09:38:04;;;;;;;62.70;26.20;;;;;;;;;;5102640;28;20056;-60
2024/01/14 09:40:31;;;;;;;62.47;26.15;;;;;;;;;;5103714;27;20091;-59
2024/01/14 09:42:59;;;;;;;52.00;25.40;;;;;;;;;;5102564;28;20087;-61
2024/01/14 09:45:26;;;;;;;52.60;24.92;;;;;;;;;;5103202;27;20132;-61
2024/01/14 09:47:59;;;;;;;53.20;24.75;;;;;;;;;;5102881;28;20052;-61
2024/01/14 09:50:26;;;;;;;50.08;24.90;;;;;;;;;;5102656;27;20059;-61
2024/01/14 09:52:55;;;;;;;56.42;25.60;;;;;;;;;;5102751;27;20052;-60
2024/01/14 09:55:21;;;;;;;54.80;25.30;;;;;;;;;;5103780;27;20055;-61
2024/01/14 09:57:49;;;;;;;54.30;25.75;;;;;;;;;;5102947;27;20063;-61
2024/01/14 10:00:15;;;;;;;55.95;24.30;;;;;;;;;;5103310;27;20494;-61
2024/01/14 10:02:42;;;;;;;53.42;26.42;;;;;;;;;;5103204;27;20048;-60
2024/01/14 10:05:09;;;;;;;51.97;25.02;;;;;;;;;;5102273;28;20060;-60
2024/01/14 10:07:36;;;;;;;54.63;25.08;;;;;;;;;;5103039;28;20056;-60
2024/01/14 10:10:06;;;;;;;55.65;26.70;;;;;;;;;;5102994;27;20056;-61
2024/01/14 10:12:33;;;;;;;55.55;25.30;;;;;;;;;;5103057;27;20056;-61
2024/01/14 10:15:00;;;;;;;59.15;26.05;;;;;;;;;;5103307;27;20048;-60
2024/01/14 10:17:27;;;;;;;57.35;27.05;;;;;;;;;;5102393;28;20086;-57
2024/01/14 10:19:54;;;;;;;56.47;25.35;;;;;;;;;;5101991;28;20052;-60
2024/01/14 10:22:21;;;;;;;58.30;25.70;;;;;;;;;;5102457;28;20048;-60
2024/01/14 10:24:51;;;;;;;53.33;24.73;;;;;;;;;;5102440;28;20056;-61
2024/01/14 10:27:23;;;;;;;52.05;23.70;;;;;;;;;;5098856;28;20502;-61
2024/01/14 10:30:03;;;;;;;54.78;25.05;;;;;;;;;;5103451;27;20369;-60
2024/01/14 10:32:31;;;;;;;50.17;23.48;;;;;;;;;;5102392;28;20110;-60
2024/01/14 10:35:17;;;;;;;50.53;24.45;;;;;;;;;;5102079;27;20052;-62
2024/01/14 10:37:45;;;;;;;50.22;24.60;;;;;;;;;;5099959;28;20083;-60
2024/01/14 10:40:12;;;;;;;56.28;25.80;;;;;;;;;;5100290;28;20087;-60
2024/01/14 10:42:38;;;;;;;54.00;25.60;;;;;;;;;;5088012;28;20511;-61
2024/01/14 10:45:05;;;;;;;52.88;24.60;;;;;;;;;;5082903;28;20083;-61
2024/01/14 10:47:36;;;;;;;54.00;25.10;;;;;;;;;;5081580;28;20062;-60
2024/01/14 10:50:03;;;;;;;44.72;23.67;;;;;;;;;;5086325;28;20052;-60
2024/01/14 10:52:37;;;;;;;49.72;25.17;;;;;;;;;;5083087;28;20586;-60
2024/01/14 10:55:13;;;;;;;48.78;24.23;;;;;;;;;;5085440;28;20057;-60
2024/01/14 10:57:42;;;;;;;48.88;24.48;;;;;;;;;;5089153;28;20582;-60
2024/01/14 11:00:09;;;;;;;46.78;22.80;;;;;;;;;;5091671;28;20051;-60
2024/01/14 11:02:37;;;;;;;42.83;22.60;;;;;;;;;;5100361;27;20130;-61
2024/01/14 11:05:04;;;;;;;46.67;22.15;;;;;;;;;;5087344;28;20080;-60
2024/01/14 11:07:32;;;;;;;46.88;21.55;;;;;;;;;;5089444;28;20059;-62
2024/01/14 11:09:59;;;;;;;42.45;22.27;;;;;;;;;;5093569;27;20137;-60
2024/01/14 11:12:41;;;;;;;44.92;22.20;;;;;;;;;;5086211;28;20171;-60
2024/01/14 11:15:13;;;;;;;44.03;20.17;;;;;;;;;;5086331;28;20063;-61
2024/01/14 11:18:03;;;;;;;43.10;20.73;;;;;;;;;;5085718;28;20057;-59
2024/01/14 11:20:31;;;;;;;37.33;19.90;;;;;;;;;;5100178;28;20060;-59
2024/01/14 11:23:20;;;;;;;39.30;20.60;;;;;;;;;;5106549;27;20182;-60
2024/01/14 11:25:48;;;;;;;40.08;20.48;;;;;;;;;;5102820;27;20063;-60
2024/01/14 11:28:14;;;;;;;42.47;20.98;;;;;;;;;;5092114;28;20541;-60
2024/01/14 11:30:48;;;;;;;41.38;21.65;;;;;;;;;;5103831;28;20056;-61
2024/01/14 11:33:42;;;;;;;43.78;22.38;;;;;;;;;;5089771;28;20076;-59
2024/01/14 11:36:09;;;;;;;46.63;22.73;;;;;;;;;;5085896;28;20574;-61
2024/01/14 11:38:45;;;;;;;49.55;23.10;;;;;;;;;;5084638;28;20071;-60
2024/01/14 11:41:11;;;;;;;;;;;;;;;;;;5086416;28;20052;-61
2024/01/14 11:43:38;;;;;;;49.85;23.67;;;;;;;;;;5089093;28;47236;-60
2024/01/14 11:46:05;;;;;;;52.58;25.15;;;;;;;;;;5105934;27;20056;-61
2024/01/14 11:48:31;;;;;;;49.38;23.95;;;;;;;;;;5100578;28;20051;-59
2024/01/14 11:50:59;;;;;;;52.28;25.38;;;;;;;;;;5105256;27;20139;-60
2024/01/14 11:53:33;;;;;;;57.97;27.15;;;;;;;;;;5106364;28;20057;-60
2024/01/14 11:55:59;;;;;;;59.65;27.92;;;;;;;;;;5106071;28;20128;-60
2024/01/14 11:58:28;;;;;;;56.55;27.58;;;;;;;;;;5106158;28;20068;-59
2024/01/14 12:00:55;;;;;;;59.95;27.52;;;;;;;;;;5105301;28;20083;-60
2024/01/14 12:03:22;;;;;;;58.17;26.98;;;;;;;;;;5105247;27;20052;-61
2024/01/14 12:05:50;;;;;;;58.30;27.40;;;;;;;;;;5104962;27;20058;-60
2024/01/14 12:08:16;;;;;;;60.13;27.35;;;;;;;;;;5104910;27;20056;-61
2024/01/14 12:10:43;;;;;;;62.78;26.92;;;;;;;;;;5105924;28;20102;-58
2024/01/14 12:13:09;;;;;;;57.58;26.70;;;;;;;;;;5105797;28;20082;-61
2024/01/14 12:15:36;;;;;;;56.83;27.02;;;;;;;;;;5105566;28;20143;-61
2024/01/14 12:18:05;;;;;;;60.88;27.73;;;;;;;;;;5104798;27;20059;-61
2024/01/14 12:20:33;;;;;;;52.85;24.17;;;;;;;;;;5102108;27;20045;-59
2024/01/14 12:23:02;;;;;;;55.92;25.27;;;;;;;;;;5085434;28;20052;-61
2024/01/14 12:25:29;;;;;;;51.47;23.73;;;;;;;;;;5085258;28;20080;-61
2024/01/14 12:27:57;;;;;;;51.05;24.55;;;;;;;;;;5092095;28;20052;-61
2024/01/14 12:30:24;;;;;;;49.60;23.65;;;;;;;;;;5105043;27;20052;-61
2024/01/14 12:32:51;;;;;;;50.38;24.08;;;;;;;;;;5104422;28;20135;-60
2024/01/14 12:35:17;;;;;;;44.67;22.52;;;;;;;;;;5105592;28;20059;-61
2024/01/14 12:37:45;;;;;;;38.80;21.15;;;;;;;;;;5088457;28;20526;-60
2024/01/14 12:40:12;;;;;;;46.47;21.35;;;;;;;;;;5085153;28;20048;-60
2024/01/14 12:42:39;;;;;;;38.85;19.77;;;;;;;;;;5103266;27;20110;-60
2024/01/14 12:45:06;;;;;;;38.92;20.13;;;;;;;;;;5103312;28;20529;-58
2024/01/14 12:47:32;;;;;;;34.22;17.50;;;;;;;;;;5104530;27;20059;-60
2024/01/14 12:49:59;;;;;;;37.30;18.67;;;;;;;;;;5103797;27;20048;-61
2024/01/14 12:52:26;;;;;;;40.40;18.90;;;;;;;;;;5104967;27;20064;-61
2024/01/14 12:54:53;;;;;;;35.60;18.70;;;;;;;;;;5105062;28;20126;-59
2024/01/14 12:57:20;;;;;;;32.60;17.77;;;;;;;;;;5105027;28;20136;-61
2024/01/14 12:59:50;;;;;;;37.58;18.92;;;;;;;;;;5104458;28;20056;-60
2024/01/14 13:02:17;;;;;;;34.63;18.88;;;;;;;;;;5104645;28;20048;-61
2024/01/14 13:04:44;;;;;;;34.28;17.13;;;;;;;;;;5103835;28;20181;-61
2024/01/14 13:07:10;;;;;;;33.20;17.23;;;;;;;;;;5104907;28;20059;-61
2024/01/14 13:09:39;;;;;;;33.50;17.40;;;;;;;;;;5104559;28;20048;-61
2024/01/14 13:12:06;;;;;;;37.20;19.35;;;;;;;;;;5104716;27;20087;-61
2024/01/14 13:14:32;;;;;;;41.70;18.30;;;;;;;;;;5104262;27;20051;-61
2024/01/14 13:16:59;;;;;;;39.58;21.10;;;;;;;;;;5103467;27;20413;-60
2024/01/14 13:19:25;;;;;;;42.08;20.25;;;;;;;;;;5103124;28;20449;-60
2024/01/14 13:21:52;;;;;;;35.47;20.92;;;;;;;;;;5104227;27;20159;-58
2024/01/14 13:24:18;;;;;;;35.97;21.00;;;;;;;;;;5104339;27;20549;-60
2024/01/14 13:26:45;;;;;;;44.63;22.30;;;;;;;;;;5104560;27;20056;-61
2024/01/14 13:29:12;;;;;;;40.22;22.42;;;;;;;;;;5104400;27;20890;-60
2024/01/14 13:31:39;;;;;;;43.03;21.90;;;;;;;;;;5104246;27;20056;-60
2024/01/14 13:34:07;;;;;;;49.78;25.67;;;;;;;;;;5104055;28;20062;-61
2024/01/14 13:36:34;;;;;;;42.80;24.75;;;;;;;;;;5102992;28;20052;-60
2024/01/14 13:39:03;;;;;;;44.47;22.42;;;;;;;;;;5104148;28;20102;-60
2024/01/14 13:41:30;;;;;;;44.33;23.77;;;;;;;;;;5103782;28;20057;-58
2024/01/14 13:43:57;;;;;;;41.03;21.65;;;;;;;;;;5103953;28;20126;-61
2024/01/14 13:46:41;;;;;;;44.88;22.30;;;;;;;;;;5104004;28;20052;-62
2024/01/14 13:49:09;;;;;;;49.70;27.80;;;;;;;;;;5104510;27;20048;-61
2024/01/14 13:51:35;;;;;;;42.00;22.60;;;;;;;;;;5103788;27;20064;-59
2024/01/14 13:54:02;;;;;;;41.95;22.05;;;;;;;;;;5103688;27;20055;-60
2024/01/14 13:56:39;;;;;;;41.88;21.27;;;;;;;;;;5091006;27;20135;-61
2024/01/14 13:59:08;;;;;;;36.92;21.23;;;;;;;;;;5085143;28;20048;-61
2024/01/14 14:01:34;;;;;;;34.90;19.15;;;;;;;;;;5086181;28;20056;-61
2024/01/14 14:04:01;;;;;;;37.15;21.73;;;;;;;;;;5086276;27;20581;-59
2024/01/14 14:06:29;;;;;;;40.53;21.67;;;;;;;;;;5083093;28;20067;-59
2024/01/14 14:08:55;;;;;;;39.28;20.05;;;;;;;;;;5083400;28;20052;-60
2024/01/14 14:11:22;;;;;;;38.38;20.58;;;;;;;;;;5083831;28;20499;-60
2024/01/14 14:13:49;;;;;;;35.78;19.67;;;;;;;;;;5087730;28;20514;-61
2024/01/14 14:16:15;;;;;;;34.00;20.33;;;;;;;;;;5103424;28;20075;-61
2024/01/14 14:19:01;;;;;;;33.08;19.42;;;;;;;;;;5103360;27;20121;-60